createdAt,value
2022-12-26T00:02:00.427Z,4.00
2022-12-26T00:04:49.763Z,3.72
2022-12-26T00:07:13.487Z,3.50
2022-12-26T00:09:39.830Z,3.65
2022-12-26T00:12:06.266Z,4.07
2022-12-26T00:14:32.595Z,3.50
2022-12-26T00:16:58.926Z,3.70
2022-12-26T00:19:25.409Z,3.50
2022-12-26T00:21:51.772Z,3.80
2022-12-26T00:24:18.506Z,3.58
2022-12-26T00:26:44.857Z,3.38
2022-12-26T00:29:11.210Z,3.42
2022-12-26T00:31:37.606Z,3.80
2022-12-26T00:34:04.135Z,3.72
2022-12-26T00:36:32.362Z,3.88
2022-12-26T00:38:59.456Z,3.60
2022-12-26T00:41:25.808Z,4.00
2022-12-26T00:43:52.170Z,4.25
2022-12-26T00:46:18.967Z,4.47
2022-12-26T00:48:45.389Z,4.50
2022-12-26T00:51:12.289Z,4.78
2022-12-26T00:53:38.987Z,4.78
2022-12-26T00:56:05.754Z,4.97
2022-12-26T00:58:32.342Z,4.88
2022-12-26T01:01:06.215Z,4.57
2022-12-26T01:03:32.647Z,4.82
2022-12-26T01:05:59.083Z,4.60
2022-12-26T01:08:25.457Z,4.43
2022-12-26T01:10:52.025Z,4.30
2022-12-26T01:13:18.386Z,4.35
2022-12-26T01:15:53.691Z,4.05
2022-12-26T01:18:20.220Z,4.53
2022-12-26T01:20:46.694Z,4.28
2022-12-26T01:23:13.353Z,4.25
2022-12-26T01:26:19.170Z,4.57
2022-12-26T01:28:26.280Z,4.43
2022-12-26T01:30:52.636Z,4.47
2022-12-26T01:33:19.149Z,4.10
2022-12-26T01:35:49.297Z,4.72
2022-12-26T01:38:15.876Z,4.60
2022-12-26T01:40:43.149Z,5.07
2022-12-26T01:43:13.223Z,5.07
2022-12-26T01:45:39.749Z,4.68
2022-12-26T01:48:34.396Z,4.90
2022-12-26T01:51:02.422Z,5.03
2022-12-26T01:53:34.699Z,4.68
2022-12-26T01:56:03.437Z,4.93
2022-12-26T01:58:33.886Z,5.10
2022-12-26T02:01:02.248Z,5.18
2022-12-26T02:03:47.257Z,5.22
2022-12-26T02:08:41.030Z,5.38
2022-12-26T02:11:17.245Z,5.35
2022-12-26T02:13:43.868Z,5.72
2022-12-26T02:16:12.265Z,6.15
2022-12-26T02:18:38.624Z,6.30
2022-12-26T02:21:14.117Z,5.30
2022-12-26T02:23:59.305Z,5.32
2022-12-26T02:26:25.662Z,5.80
2022-12-26T02:28:52.170Z,5.72
2022-12-26T02:31:37.263Z,5.00
2022-12-26T02:34:15.947Z,5.40
2022-12-26T02:37:00.825Z,5.80
2022-12-26T02:39:44.154Z,5.60
2022-12-26T02:42:30.543Z,5.53
2022-12-26T02:45:38.579Z,5.75
2022-12-26T02:48:13.680Z,6.30
2022-12-26T02:51:00.248Z,5.57
2022-12-26T02:53:51.102Z,5.60
2022-12-26T02:56:43.258Z,5.82
2022-12-26T02:59:56.444Z,6.00
2022-12-26T03:02:43.330Z,5.80
2022-12-26T03:08:13.941Z,5.78
2022-12-26T03:10:59.174Z,5.30
2022-12-26T03:13:28.470Z,5.50
2022-12-26T03:16:42.020Z,5.22
2022-12-26T03:19:08.826Z,5.95
2022-12-26T03:21:38.835Z,5.75
2022-12-26T03:24:07.735Z,5.15
2022-12-26T03:26:40.814Z,5.28
2022-12-26T03:29:27.790Z,5.40
2022-12-26T03:31:54.433Z,5.45
2022-12-26T03:34:20.910Z,5.68
2022-12-26T03:36:50.371Z,5.82
2022-12-26T03:39:47.663Z,5.82
2022-12-26T03:42:40.184Z,6.30
2022-12-26T03:45:35.193Z,6.40
2022-12-26T03:48:33.106Z,6.38
2022-12-26T03:51:23.571Z,6.10
2022-12-26T03:54:25.122Z,6.60
2022-12-26T03:57:12.440Z,5.78
2022-12-26T04:00:02.478Z,6.38
2022-12-26T04:02:58.826Z,5.68
2022-12-26T04:05:43.680Z,5.90
2022-12-26T04:08:34.424Z,5.50
2022-12-26T04:11:20.055Z,5.80
2022-12-26T04:14:10.810Z,5.60
2022-12-26T04:16:55.591Z,5.95
2022-12-26T04:19:28.145Z,5.68
2022-12-26T04:22:17.492Z,5.72
2022-12-26T04:25:07.751Z,5.70
2022-12-26T04:27:52.595Z,4.97
2022-12-26T04:30:37.735Z,4.57
2022-12-26T04:33:25.822Z,4.90
2022-12-26T04:36:12.711Z,4.60
2022-12-26T04:39:01.656Z,5.50
2022-12-26T04:41:49.856Z,4.57
2022-12-26T04:44:17.310Z,4.88
2022-12-26T04:46:45.225Z,4.95
2022-12-26T04:49:42.256Z,5.10
2022-12-26T04:52:10.109Z,5.07
2022-12-26T04:54:36.656Z,5.05
2022-12-26T04:57:03.233Z,5.50
2022-12-26T04:59:29.607Z,5.43
2022-12-26T05:02:14.731Z,5.60
2022-12-26T05:04:59.954Z,5.38
2022-12-26T05:07:49.465Z,5.47
2022-12-26T05:10:23.351Z,5.43
2022-12-26T05:12:50.061Z,5.70
2022-12-26T05:15:16.510Z,5.65
2022-12-26T05:18:01.392Z,5.80
2022-12-26T05:20:30.704Z,5.72
2022-12-26T05:23:16.134Z,6.60
2022-12-26T05:26:02.321Z,5.03
2022-12-26T05:28:44.255Z,6.18
2022-12-26T05:31:15.079Z,6.03
2022-12-26T05:34:00.421Z,5.25
2022-12-26T05:36:50.200Z,5.07
2022-12-26T05:39:16.627Z,5.90
2022-12-26T05:41:43.336Z,5.85
2022-12-26T05:44:10.003Z,5.28
2022-12-26T05:46:36.528Z,5.18
2022-12-26T05:49:03.146Z,4.90
2022-12-26T05:51:29.519Z,5.47
2022-12-26T05:53:55.941Z,4.50
2022-12-26T05:56:22.427Z,5.18
2022-12-26T05:58:53.671Z,4.80
2022-12-26T06:01:20.820Z,4.00
2022-12-26T06:03:48.407Z,4.53
2022-12-26T06:08:41.096Z,3.60
2022-12-26T06:11:08.593Z,3.50
2022-12-26T06:13:36.423Z,3.90
2022-12-26T06:16:07.107Z,3.53
2022-12-26T06:18:33.836Z,3.83
2022-12-26T06:21:03.049Z,3.60
2022-12-26T06:23:29.401Z,3.70
2022-12-26T06:25:56.272Z,3.53
2022-12-26T06:28:23.664Z,3.40
2022-12-26T06:30:50.781Z,3.53
2022-12-26T06:33:17.716Z,2.80
2022-12-26T06:35:44.449Z,3.20
2022-12-26T06:38:10.830Z,3.13
2022-12-26T06:40:40.988Z,3.17
2022-12-26T06:43:08.033Z,2.70
2022-12-26T06:45:34.689Z,2.58
2022-12-26T06:48:01.390Z,2.75
2022-12-26T06:50:27.754Z,2.80
2022-12-26T06:52:54.113Z,2.53
2022-12-26T06:55:20.463Z,2.60
2022-12-26T06:57:46.806Z,3.05
2022-12-26T07:00:13.621Z,2.38
2022-12-26T07:02:40.043Z,2.70
2022-12-26T07:05:06.640Z,2.60
2022-12-26T07:07:32.962Z,2.42
2022-12-26T07:09:59.302Z,2.67
2022-12-26T07:12:25.639Z,2.35
2022-12-26T07:14:52.686Z,2.67
2022-12-26T07:17:21.803Z,2.30
2022-12-26T07:19:48.369Z,2.42
2022-12-26T07:22:14.721Z,2.00
2022-12-26T07:24:41.063Z,2.30
2022-12-26T07:27:07.386Z,2.30
2022-12-26T07:29:33.741Z,2.08
2022-12-26T07:32:00.246Z,2.20
2022-12-26T07:34:31.450Z,2.00
2022-12-26T07:36:59.616Z,2.17
2022-12-26T07:39:25.964Z,2.10
2022-12-26T07:41:58.139Z,2.08
2022-12-26T07:44:28.107Z,1.80
2022-12-26T07:46:54.933Z,2.53
2022-12-26T07:49:21.292Z,1.73
2022-12-26T07:51:48.328Z,1.90
2022-12-26T07:54:14.874Z,1.80
2022-12-26T07:56:41.267Z,1.95
2022-12-26T07:59:08.247Z,1.40
2022-12-26T08:01:34.739Z,1.88
2022-12-26T08:04:01.350Z,1.65
2022-12-26T08:06:27.807Z,1.60
2022-12-26T08:08:54.159Z,1.60
2022-12-26T08:11:22.750Z,1.60
2022-12-26T08:13:49.284Z,1.45
2022-12-26T08:16:15.705Z,1.45
2022-12-26T08:18:42.696Z,1.50
2022-12-26T08:21:09.485Z,1.50
2022-12-26T08:23:35.938Z,1.52
2022-12-26T08:26:09.157Z,1.60
2022-12-26T08:28:35.818Z,1.60
2022-12-26T08:31:09.112Z,1.63
2022-12-26T08:33:36.050Z,1.58
2022-12-26T08:36:06.728Z,1.70
2022-12-26T08:38:34.083Z,1.65
2022-12-26T08:41:00.699Z,1.40
2022-12-26T08:43:45.375Z,1.50
2022-12-26T08:46:14.039Z,1.30
2022-12-26T08:48:40.658Z,1.60
2022-12-26T08:51:09.295Z,1.60
2022-12-26T08:53:36.176Z,1.30
2022-12-26T08:56:03.840Z,1.40
2022-12-26T08:58:30.382Z,1.40
2022-12-26T09:01:05.326Z,1.70
2022-12-26T09:03:31.779Z,1.30
2022-12-26T09:06:05.867Z,1.30
2022-12-26T09:08:34.823Z,1.33
2022-12-26T09:11:09.332Z,1.25
2022-12-26T09:13:36.624Z,1.42
2022-12-26T09:16:07.552Z,1.50
2022-12-26T09:18:33.996Z,1.33
2022-12-26T09:21:01.198Z,1.40
2022-12-26T09:23:28.738Z,1.60
2022-12-26T09:28:21.378Z,1.27
2022-12-26T09:30:47.816Z,1.33
2022-12-26T09:33:14.157Z,1.25
2022-12-26T09:35:40.947Z,1.20
2022-12-26T09:38:07.406Z,1.50
2022-12-26T09:40:40.415Z,1.20
2022-12-26T09:43:13.643Z,1.30
2022-12-26T09:45:50.206Z,1.40
2022-12-26T09:48:19.516Z,1.30
2022-12-26T09:50:49.240Z,1.45
2022-12-26T09:53:18.120Z,1.48
2022-12-26T09:55:46.515Z,1.30
2022-12-26T09:58:15.655Z,1.20
2022-12-26T10:00:52.933Z,1.30
2022-12-26T10:03:20.036Z,1.30
2022-12-26T10:05:58.015Z,1.20
2022-12-26T10:08:29.371Z,1.30
2022-12-26T10:11:01.006Z,1.05
2022-12-26T10:13:37.115Z,1.00
2022-12-26T10:16:08.209Z,1.10
2022-12-26T10:18:40.580Z,1.13
2022-12-26T10:21:12.830Z,1.10
2022-12-26T10:23:40.925Z,0.88
2022-12-26T10:26:15.781Z,0.85
2022-12-26T10:29:00.828Z,1.00
2022-12-26T10:31:34.885Z,0.80
2022-12-26T10:34:04.485Z,0.95
2022-12-26T10:36:37.022Z,1.00
2022-12-26T10:39:05.843Z,0.70
2022-12-26T10:41:42.221Z,1.05
2022-12-26T10:44:12.050Z,0.90
2022-12-26T10:46:57.067Z,0.90
2022-12-26T10:49:25.177Z,0.90
2022-12-26T10:51:52.664Z,0.77
2022-12-26T10:56:47.926Z,1.00
2022-12-26T10:59:26.837Z,0.90
2022-12-26T11:01:53.263Z,1.00
2022-12-26T11:04:52.854Z,0.80
2022-12-26T11:07:11.507Z,0.80
2022-12-26T11:09:42.653Z,1.20
2022-12-26T11:12:20.554Z,1.00
2022-12-26T11:14:46.990Z,0.90
2022-12-26T11:17:23.932Z,1.00
2022-12-26T11:20:08.305Z,0.95
2022-12-26T11:22:34.680Z,0.90
2022-12-26T11:25:12.685Z,0.85
2022-12-26T11:27:49.846Z,0.95
2022-12-26T11:30:22.575Z,1.60
2022-12-26T11:33:05.940Z,2.70
2022-12-26T11:35:37.423Z,3.05
2022-12-26T11:38:05.874Z,2.58
2022-12-26T11:40:35.312Z,2.28
2022-12-26T11:43:02.962Z,2.20
2022-12-26T11:45:35.486Z,2.30
2022-12-26T11:48:08.750Z,2.08
2022-12-26T11:50:44.088Z,1.70
2022-12-26T11:53:14.423Z,2.03
2022-12-26T11:55:40.752Z,2.25
2022-12-26T12:00:41.067Z,1.90
2022-12-26T12:03:12.344Z,1.67
2022-12-26T12:05:58.167Z,1.77
2022-12-26T12:08:24.503Z,1.90
2022-12-26T12:11:00.132Z,1.75
2022-12-26T12:13:29.217Z,1.60
2022-12-26T12:15:58.663Z,1.60
2022-12-26T12:18:43.834Z,1.70
2022-12-26T12:21:24.857Z,1.60
2022-12-26T12:24:01.707Z,1.70
2022-12-26T12:26:56.583Z,1.50
2022-12-26T12:29:34.433Z,1.77
2022-12-26T12:32:09.165Z,1.70
2022-12-26T12:34:54.452Z,1.42
2022-12-26T12:37:20.812Z,1.30
2022-12-26T12:39:47.248Z,1.20
2022-12-26T12:42:23.483Z,1.90
2022-12-26T12:44:55.424Z,1.63
2022-12-26T12:47:37.949Z,1.27
2022-12-26T12:50:25.012Z,1.38
2022-12-26T12:52:54.430Z,1.20
2022-12-26T12:55:26.806Z,1.80
2022-12-26T12:57:56.198Z,1.55
2022-12-26T13:00:24.923Z,1.30
2022-12-26T13:02:55.454Z,1.30
2022-12-26T13:05:41.719Z,1.70
2022-12-26T13:08:11.135Z,1.50
2022-12-26T13:10:47.678Z,1.45
2022-12-26T13:13:19.555Z,1.80
2022-12-26T13:15:48.665Z,1.60
2022-12-26T13:18:17.860Z,1.48
2022-12-26T13:20:53.312Z,1.27
2022-12-26T13:23:41.469Z,1.42
2022-12-26T13:26:16.002Z,1.50
2022-12-26T13:29:05.414Z,1.48
2022-12-26T13:31:35.878Z,1.35
2022-12-26T13:34:03.512Z,1.60
2022-12-26T13:36:41.031Z,1.60
2022-12-26T13:39:16.090Z,1.30
2022-12-26T13:42:08.047Z,1.20
2022-12-26T13:44:34.528Z,1.30
2022-12-26T13:47:00.919Z,1.50
2022-12-26T13:49:27.722Z,1.30
2022-12-26T13:51:55.841Z,1.30
2022-12-26T13:54:23.797Z,1.10
2022-12-26T13:56:56.243Z,1.05
2022-12-26T13:59:38.905Z,1.30
2022-12-26T14:02:32.198Z,1.30
2022-12-26T14:05:29.282Z,1.20
2022-12-26T14:07:57.630Z,1.65
2022-12-26T14:10:27.079Z,1.27
2022-12-26T14:12:59.455Z,1.30
2022-12-26T14:15:25.788Z,1.52
2022-12-26T14:18:00.579Z,1.20
2022-12-26T14:20:42.261Z,1.38
2022-12-26T14:23:11.585Z,1.40
2022-12-26T14:25:59.211Z,1.30
2022-12-26T14:28:34.579Z,1.48
2022-12-26T14:31:01.096Z,1.45
2022-12-26T14:33:34.586Z,1.15
2022-12-26T14:38:46.789Z,1.27
2022-12-26T14:41:35.979Z,1.30
2022-12-26T14:44:11.491Z,1.20
2022-12-26T14:46:39.174Z,1.27
2022-12-26T14:49:22.918Z,1.20
2022-12-26T14:51:49.545Z,1.20
2022-12-26T14:54:33.829Z,1.48
2022-12-26T14:57:00.356Z,1.23
2022-12-26T14:59:29.627Z,1.35
2022-12-26T15:02:02.500Z,1.40
2022-12-26T15:05:01.423Z,1.30
2022-12-26T15:07:46.701Z,1.30
2022-12-26T15:10:33.322Z,1.40
2022-12-26T15:13:02.797Z,1.27
2022-12-26T15:15:47.995Z,1.25
2022-12-26T15:18:26.384Z,1.30
2022-12-26T15:21:09.037Z,2.92
2022-12-26T15:23:52.457Z,4.20
2022-12-26T15:26:18.861Z,8.95
2022-12-26T15:29:01.372Z,9.35
2022-12-26T15:31:36.741Z,8.38
2022-12-26T15:34:24.948Z,7.60
2022-12-26T15:37:03.421Z,7.22
2022-12-26T15:39:42.881Z,6.70
2022-12-26T15:42:12.096Z,6.55
2022-12-26T15:44:50.789Z,6.55
2022-12-26T15:47:25.515Z,5.80
2022-12-26T15:49:59.650Z,6.00
2022-12-26T15:52:34.943Z,6.60
2022-12-26T15:55:24.592Z,5.90
2022-12-26T15:57:57.773Z,5.90
2022-12-26T16:00:25.585Z,5.30
2022-12-26T16:02:58.137Z,5.43
2022-12-26T16:05:24.652Z,5.10
2022-12-26T16:07:57.243Z,5.47
2022-12-26T16:10:26.679Z,5.22
2022-12-26T16:13:03.652Z,4.57
2022-12-26T16:15:31.488Z,4.53
2022-12-26T16:18:14.172Z,4.57
2022-12-26T16:20:59.183Z,4.65
2022-12-26T16:23:27.592Z,4.22
2022-12-26T16:25:55.324Z,4.20
2022-12-26T16:28:26.088Z,4.90
2022-12-26T16:30:52.589Z,4.18
2022-12-26T16:33:19.516Z,3.92
2022-12-26T16:35:45.896Z,4.60
2022-12-26T16:38:16.829Z,4.28
2022-12-26T16:40:47.625Z,3.53
2022-12-26T16:43:13.955Z,3.90
2022-12-26T16:45:40.645Z,4.07
2022-12-26T16:48:08.220Z,3.53
2022-12-26T16:50:37.400Z,3.60
2022-12-26T16:53:09.759Z,3.38
2022-12-26T16:55:42.344Z,3.60
2022-12-26T16:58:18.864Z,3.90
2022-12-26T17:00:47.007Z,3.58
2022-12-26T17:03:21.011Z,3.20
2022-12-26T17:05:47.380Z,3.40
2022-12-26T17:08:14.544Z,2.97
2022-12-26T17:10:45.944Z,3.80
2022-12-26T17:13:16.911Z,3.15
2022-12-26T17:15:49.786Z,3.35
2022-12-26T17:18:29.877Z,3.17
2022-12-26T17:20:56.768Z,2.90
2022-12-26T17:23:34.524Z,3.05
2022-12-26T17:26:24.063Z,3.10
2022-12-26T17:28:50.969Z,2.97
2022-12-26T17:31:20.607Z,3.08
2022-12-26T17:33:48.236Z,2.80
2022-12-26T17:39:31.644Z,3.00
2022-12-26T17:41:59.147Z,2.78
2022-12-26T17:46:51.962Z,2.60
2022-12-26T17:49:18.346Z,2.95
2022-12-26T17:51:50.723Z,3.20
2022-12-26T17:54:20.955Z,3.22
2022-12-26T17:56:47.292Z,3.00
2022-12-26T17:59:14.360Z,2.63
2022-12-26T18:01:40.841Z,2.85
2022-12-26T18:04:07.256Z,2.60
2022-12-26T18:06:33.638Z,2.53
2022-12-26T18:09:00.006Z,2.65
2022-12-26T18:11:26.390Z,2.40
2022-12-26T18:13:52.759Z,2.50
2022-12-26T18:16:19.701Z,2.63
2022-12-26T18:18:47.098Z,2.80
2022-12-26T18:21:15.152Z,2.78
2022-12-26T18:23:41.557Z,3.00
2022-12-26T18:26:28.146Z,2.47
2022-12-26T18:28:54.703Z,2.65
2022-12-26T18:31:21.395Z,2.58
2022-12-26T18:33:47.790Z,2.22
2022-12-26T18:36:15.261Z,2.72
2022-12-26T18:41:09.838Z,2.28
2022-12-26T18:43:36.262Z,2.47
2022-12-26T18:46:02.679Z,2.22
2022-12-26T18:48:29.070Z,2.33
2022-12-26T18:50:55.458Z,2.40
2022-12-26T18:53:21.804Z,2.42
2022-12-26T18:55:48.168Z,2.45
2022-12-26T18:58:14.648Z,2.38
2022-12-26T19:00:41.013Z,2.15
2022-12-26T19:03:07.423Z,2.10
2022-12-26T19:05:34.209Z,2.22
2022-12-26T19:08:01.213Z,2.63
2022-12-26T19:10:29.163Z,2.30
2022-12-26T19:13:02.868Z,2.03
2022-12-26T19:15:32.380Z,2.20
2022-12-26T19:17:58.818Z,2.10
2022-12-26T19:20:26.060Z,2.30
2022-12-26T19:22:53.256Z,2.10
2022-12-26T19:25:20.396Z,2.35
2022-12-26T19:27:48.022Z,2.20
2022-12-26T19:30:14.873Z,2.13
2022-12-26T19:32:43.125Z,2.20
2022-12-26T19:35:09.575Z,2.25
2022-12-26T19:37:35.988Z,2.47
2022-12-26T19:40:02.771Z,1.75
2022-12-26T19:42:29.121Z,2.17
2022-12-26T19:44:55.564Z,1.85
2022-12-26T19:47:21.958Z,1.85
2022-12-26T19:49:48.328Z,2.00
2022-12-26T19:52:14.722Z,1.90
2022-12-26T19:54:41.077Z,2.10
2022-12-26T19:57:07.643Z,1.70
2022-12-26T19:59:33.980Z,1.83
2022-12-26T20:02:00.526Z,1.80
2022-12-26T20:04:27.433Z,1.92
2022-12-26T20:06:53.840Z,2.20
2022-12-26T20:09:20.360Z,1.90
2022-12-26T20:11:49.377Z,2.00
2022-12-26T20:14:17.020Z,1.70
2022-12-26T20:17:04.949Z,1.98
2022-12-26T20:19:29.775Z,1.55
2022-12-26T20:21:56.610Z,1.70
2022-12-26T20:24:23.236Z,1.70
2022-12-26T20:26:50.099Z,1.70
2022-12-26T20:29:16.532Z,1.80
2022-12-26T20:31:42.981Z,1.90
2022-12-26T20:34:10.059Z,1.55
2022-12-26T20:36:37.210Z,1.52
2022-12-26T20:39:05.330Z,1.88
2022-12-26T20:41:31.964Z,1.70
2022-12-26T20:43:58.651Z,1.90
2022-12-26T20:46:29.672Z,1.70
2022-12-26T20:48:56.263Z,1.85
2022-12-26T20:51:24.063Z,1.73
2022-12-26T20:53:51.291Z,1.65
2022-12-26T20:56:17.846Z,1.40
2022-12-26T20:58:44.405Z,1.70
2022-12-26T21:01:13.187Z,1.70
2022-12-26T21:03:40.004Z,1.50
2022-12-26T21:06:07.845Z,1.67
2022-12-26T21:08:34.971Z,1.70
2022-12-26T21:11:04.886Z,1.70
2022-12-26T21:13:31.267Z,1.52
2022-12-26T21:15:57.687Z,1.70
2022-12-26T21:18:24.085Z,1.85
2022-12-26T21:20:50.442Z,1.60
2022-12-26T21:23:16.775Z,1.67
2022-12-26T21:25:43.104Z,2.08
2022-12-26T21:28:09.469Z,1.77
2022-12-26T21:30:35.887Z,1.70
2022-12-26T21:33:02.331Z,1.80
2022-12-26T21:35:29.015Z,1.77
2022-12-26T21:37:55.406Z,1.50
2022-12-26T21:40:23.523Z,1.58
2022-12-26T21:42:49.879Z,1.50
2022-12-26T21:45:16.413Z,1.42
2022-12-26T21:47:42.798Z,1.40
2022-12-26T21:50:09.264Z,1.60
2022-12-26T21:52:35.655Z,1.40
2022-12-26T21:55:20.808Z,1.40
2022-12-26T21:57:47.164Z,1.40
2022-12-26T22:00:13.859Z,1.50
2022-12-26T22:02:59.234Z,1.48
2022-12-26T22:05:27.168Z,1.40
2022-12-26T22:07:54.635Z,1.35
2022-12-26T22:13:06.714Z,1.50
2022-12-26T22:15:53.006Z,1.40
2022-12-26T22:18:19.496Z,1.50
2022-12-26T22:20:46.292Z,1.60
2022-12-26T22:23:13.239Z,1.52
2022-12-26T22:25:39.612Z,1.58
2022-12-26T22:28:05.955Z,1.70
2022-12-26T22:30:32.432Z,1.73
2022-12-26T22:32:58.866Z,1.50
2022-12-26T22:35:25.253Z,1.85
2022-12-26T22:37:51.593Z,1.60
2022-12-26T22:40:18.033Z,1.50
2022-12-26T22:42:44.412Z,1.60
2022-12-26T22:45:10.864Z,1.63
2022-12-26T22:47:37.192Z,1.58
2022-12-26T22:50:03.758Z,1.58
2022-12-26T22:52:30.157Z,1.50
2022-12-26T22:54:56.547Z,1.70
2022-12-26T22:57:23.704Z,1.48
2022-12-26T23:02:36.744Z,1.83
2022-12-26T23:05:03.458Z,1.48
2022-12-26T23:07:30.011Z,1.65
2022-12-26T23:09:56.484Z,1.50
2022-12-26T23:12:41.569Z,1.90
2022-12-26T23:15:08.380Z,1.55
2022-12-26T23:17:56.293Z,1.77
2022-12-26T23:20:42.627Z,1.60
2022-12-26T23:23:09.145Z,1.80
2022-12-26T23:25:35.574Z,1.83
2022-12-26T23:28:20.650Z,1.60
2022-12-26T23:30:47.032Z,1.88
2022-12-26T23:33:13.390Z,1.50
2022-12-26T23:35:40.082Z,1.70
2022-12-26T23:38:06.510Z,1.75
2022-12-26T23:40:32.933Z,1.80
2022-12-26T23:42:59.348Z,1.90
2022-12-26T23:45:25.733Z,2.20
2022-12-26T23:47:52.244Z,2.15
2022-12-26T23:50:18.742Z,1.90
2022-12-26T23:52:45.229Z,2.20
2022-12-26T23:55:11.714Z,1.88
2022-12-26T23:57:38.109Z,1.90
